Time;durP1;ratioP1;P1;durP2;ratioP2;P2;SDS_P1;SDS_P2;PMS_P1;PMS_P2;Temp;Humidity;BMP_temperature;BMP_pressure;BME280_temperature;BME280_humidity;BME280_pressure;Samples;Min_cycle;Max_cycle;Signal;HPM_P1;HPM_P2
2022/07/11 07:58:38;;;;;;;6.07;5.50;;;;;;;17.90;80.83;102296.38;5266263;28;20396;-64
2022/07/11 08:04:00;;;;;;;6.57;5.03;;;;;;;17.91;80.46;102300.84;5221119;28;20482;-65
2022/07/11 08:06:34;;;;;;;7.90;6.63;;;;;;;17.99;80.43;102307.75;5232158;28;20036;-65
2022/07/11 08:09:06;;;;;;;7.72;6.07;;;;;;;17.96;80.29;102313.97;5238017;28;20408;-65
2022/07/11 08:11:40;;;;;;;7.43;6.20;;;;;;;18.09;80.14;102310.38;5237534;28;20029;-65
2022/07/11 08:14:12;;;;;;;6.27;5.47;;;;;;;18.15;79.48;102299.91;5238912;28;20026;-65
2022/07/11 08:16:43;;;;;;;7.50;6.35;;;;;;;18.11;79.81;102299.69;5246921;28;20499;-65
2022/07/11 08:19:15;;;;;;;7.40;6.70;;;;;;;18.16;79.59;102304.41;5258760;28;20025;-65
2022/07/11 08:21:46;;;;;;;6.43;5.78;;;;;;;18.24;79.22;102303.69;5252961;28;20564;-65
2022/07/11 08:24:21;;;;;;;5.63;5.10;;;;;;;18.40;78.63;102301.44;5237404;28;20025;-65
2022/07/11 08:26:52;;;;;;;7.65;5.97;;;;;;;18.42;78.63;102302.81;5236811;28;20041;-65
2022/07/11 08:29:23;;;;;;;4.90;4.28;;;;;;;18.36;78.52;102306.84;5228051;28;20030;-66
2022/07/11 08:31:54;;;;;;;4.40;4.00;;;;;;;18.41;78.37;102306.78;5236507;28;20025;-65
2022/07/11 08:34:26;;;;;;;4.45;4.05;;;;;;;18.42;77.99;102301.97;5238286;28;20132;-65
2022/07/11 08:36:57;;;;;;;5.13;4.63;;;;;;;18.47;77.71;102315.94;5238256;28;20038;-65
2022/07/11 08:39:28;;;;;;;7.00;5.20;;;;;;;18.43;78.08;102315.72;5227387;28;20026;-65
2022/07/11 08:41:59;;;;;;;5.82;5.25;;;;;;;18.45;78.89;102309.78;5237725;28;20022;-65
2022/07/11 08:44:32;;;;;;;6.40;5.88;;;;;;;18.51;78.52;102307.72;5237817;28;20075;-64
2022/07/11 08:47:03;;;;;;;7.80;7.05;;;;;;;18.61;78.42;102302.75;5236901;28;20433;-64
2022/07/11 08:49:35;;;;;;;8.48;7.57;;;;;;;18.55;78.58;102303.16;5226703;28;20041;-64
2022/07/11 08:52:07;;;;;;;9.13;8.07;;;;;;;18.58;78.86;102300.53;5257338;28;20017;-64
2022/07/11 08:54:38;;;;;;;8.60;7.65;;;;;;;18.56;78.67;102300.03;5255047;28;20134;-64
2022/07/11 08:57:10;;;;;;;8.00;7.20;;;;;;;18.58;78.62;102302.53;5233761;28;20374;-64
2022/07/11 08:59:43;;;;;;;9.20;7.93;;;;;;;18.62;78.86;102307.22;5231744;28;20041;-67
2022/07/11 09:02:15;;;;;;;8.77;7.32;;;;;;;18.57;78.94;102304.50;5252319;28;20168;-67
2022/07/11 09:04:47;;;;;;;10.60;8.05;;;;;;;18.58;79.00;102308.16;5255281;28;20025;-67
2022/07/11 09:07:18;;;;;;;7.60;6.82;;;;;;;18.68;78.98;102302.34;5251138;28;20608;-67
2022/07/11 09:09:49;;;;;;;10.73;8.57;;;;;;;18.57;78.92;102289.63;5224369;28;20091;-67
2022/07/11 09:12:21;;;;;;;11.27;9.13;;;;;;;18.80;78.87;102288.66;5224026;28;20022;-67
2022/07/11 09:14:52;;;;;;;11.05;9.35;;;;;;;18.82;78.53;102291.16;5222783;28;20064;-67
2022/07/11 09:17:29;;;;;;;11.25;10.00;;;;;;;18.89;78.72;102288.75;5223867;28;20030;-68
2022/07/11 09:20:01;;;;;;;23.08;20.77;;;;;;;18.81;78.43;102295.94;5222809;28;20034;-67
2022/07/11 09:25:31;;;;;;;10.65;9.60;;;;;;;18.95;77.61;102293.16;5224856;28;20128;-67
2022/07/11 09:28:04;;;;;;;11.05;9.80;;;;;;;18.98;77.32;102300.13;5240474;28;20037;-67
2022/07/11 09:30:39;;;;;;;10.45;9.30;;;;;;;18.92;76.91;102285.34;5225176;28;20088;-67
2022/07/11 09:33:12;;;;;;;12.65;9.15;;;;;;;19.00;76.24;102289.41;5237039;28;20022;-67
2022/07/11 09:35:45;;;;;;;16.33;13.43;;;;;;;19.11;76.49;102280.44;5224801;28;20021;-67
2022/07/11 09:38:17;;;;;;;11.60;10.40;;;;;;;19.11;75.69;102286.06;5235738;28;20082;-67
2022/07/11 09:40:49;;;;;;;12.85;9.70;;;;;;;19.29;75.04;102283.44;5241767;28;20060;-67
2022/07/11 09:43:25;;;;;;;9.68;8.15;;;;;;;19.36;75.03;102281.03;5237556;28;20076;-67
2022/07/11 09:46:05;;;;;;;10.52;9.35;;;;;;;19.54;75.00;102279.25;5224328;28;20394;-67
2022/07/11 09:48:36;;;;;;;10.95;9.70;;;;;;;19.42;75.06;102288.22;5233483;28;20022;-67
2022/07/11 09:51:07;;;;;;;9.65;8.45;;;;;;;19.43;74.75;102284.28;5234172;28;20076;-67
2022/07/11 09:53:55;;;;;;;9.63;8.70;;;;;;;19.45;74.77;102283.94;5225748;28;20026;-67
2022/07/11 09:56:34;;;;;;;9.50;8.50;;;;;;;19.36;75.42;102283.84;5225019;28;20030;-67
2022/07/11 09:59:06;;;;;;;8.95;8.05;;;;;;;19.31;75.19;102281.97;5223330;28;20477;-67
2022/07/11 10:01:39;;;;;;;9.70;8.68;;;;;;;19.34;75.38;102286.16;5223066;28;20065;-67
2022/07/11 10:04:10;;;;;;;10.13;9.13;;;;;;;19.42;75.33;102282.59;5221804;28;20039;-67
2022/07/11 10:06:42;;;;;;;9.48;8.05;;;;;;;19.49;74.82;102277.38;5222211;28;20100;-66
2022/07/11 10:09:13;;;;;;;8.40;7.60;;;;;;;19.45;74.62;102281.94;5221278;28;20036;-66
2022/07/11 10:11:44;;;;;;;11.65;9.13;;;;;;;19.47;75.24;102281.66;5222493;28;20025;-67
2022/07/11 10:14:16;;;;;;;11.35;8.75;;;;;;;19.43;76.01;102289.91;5239928;28;20022;-67
2022/07/11 10:17:18;;;;;;;10.77;9.27;;;;;;;19.57;76.00;102289.03;5224086;28;20037;-67
2022/07/11 10:20:04;;;;;;;12.82;9.65;;;;;;;19.50;75.97;102290.28;5220836;28;20121;-67
2022/07/11 10:22:41;;;;;;;10.70;9.18;;;;;;;19.44;76.07;102280.28;5216489;28;20030;-67
2022/07/11 10:25:37;;;;;;;11.98;9.18;;;;;;;19.60;75.55;102292.03;5201148;28;20061;-67
2022/07/11 10:28:34;;;;;;;9.55;7.68;;;;;;;19.67;75.67;102288.81;5201570;28;20018;-67
2022/07/11 10:31:21;;;;;;;10.07;7.18;;;;;;;19.83;75.32;102292.09;5218385;28;20030;-67
2022/07/11 10:34:02;;;;;;;8.70;7.80;;;;;;;19.96;74.48;102297.69;5240102;28;20470;-67
2022/07/11 10:36:41;;;;;;;7.95;7.25;;;;;;;19.92;74.16;102296.66;5242521;28;20091;-69
2022/07/11 10:39:24;;;;;;;9.27;7.57;;;;;;;20.05;74.45;102294.13;5241417;28;20026;-67
2022/07/11 10:42:00;;;;;;;10.90;8.98;;;;;;;19.97;73.73;102299.38;5201292;28;20497;-67
2022/07/11 10:44:52;;;;;;;9.38;7.95;;;;;;;19.96;73.71;102300.50;5215710;28;20537;-66
2022/07/11 10:47:43;;;;;;;16.50;15.05;;;;;;;20.05;73.75;102294.13;5231766;28;20484;-66
2022/07/11 10:50:31;;;;;;;26.73;21.67;;;;;;;20.17;73.16;102295.22;5228388;28;20373;-66
2022/07/11 10:53:09;;;;;;;14.15;12.65;;;;;;;20.21;73.16;102301.03;5220735;28;20049;-66
2022/07/11 10:56:17;;;;;;;8.98;7.57;;;;;;;20.44;73.10;102299.03;5220020;28;20037;-69
2022/07/11 10:59:11;;;;;;;9.55;8.25;;;;;;;20.26;72.43;102300.91;5209255;28;20591;-68
2022/07/11 11:02:09;;;;;;;16.05;14.50;;;;;;;20.38;71.94;102300.34;5200776;28;20045;-66
2022/07/11 11:04:45;;;;;;;8.30;7.53;;;;;;;20.08;72.33;102297.13;5206204;28;20022;-67
2022/07/11 11:07:37;;;;;;;11.00;7.95;;;;;;;20.36;72.15;102294.19;5214827;28;20042;-66
2022/07/11 11:10:11;;;;;;;7.97;6.60;;;;;;;20.36;72.52;102299.81;5210936;28;20447;-69
2022/07/11 11:13:04;;;;;;;35.97;32.43;;;;;;;20.39;72.04;102299.16;5210253;28;20724;-70
2022/07/11 11:15:46;;;;;;;7.63;6.53;;;;;;;20.29;71.12;102300.25;5214227;28;20088;-67
2022/07/11 11:18:26;;;;;;;9.57;8.68;;;;;;;20.31;71.39;102303.59;5220439;28;20038;-67
2022/07/11 11:20:57;;;;;;;6.65;5.90;;;;;;;20.30;71.49;102307.56;5220668;28;20541;-66
2022/07/11 11:23:33;;;;;;;5.80;4.90;;;;;;;20.16;72.15;102301.16;5228321;28;20105;-66
2022/07/11 11:26:08;;;;;;;6.32;5.72;;;;;;;20.19;72.34;102308.97;5241228;28;20509;-66
2022/07/11 11:29:04;;;;;;;6.87;6.00;;;;;;;20.30;72.33;102307.56;5240988;28;20036;-66
2022/07/11 11:31:36;;;;;;;9.25;5.75;;;;;;;20.36;71.57;102306.28;5241508;28;20137;-67
2022/07/11 11:34:07;;;;;;;7.03;5.75;;;;;;;20.40;72.03;102304.50;5240792;28;20112;-67
2022/07/11 11:36:39;;;;;;;6.15;5.07;;;;;;;20.36;71.67;102309.09;5241517;28;20061;-67
2022/07/11 11:39:10;;;;;;;6.22;5.22;;;;;;;20.27;72.46;102304.53;5221680;28;20033;-65
2022/07/11 11:41:42;;;;;;;6.57;6.00;;;;;;;20.29;71.95;102300.25;5214627;28;20030;-65
2022/07/11 11:44:13;;;;;;;7.85;5.07;;;;;;;20.46;71.86;102298.72;5218191;28;20034;-65
2022/07/11 11:46:45;;;;;;;8.10;7.30;;;;;;;20.47;71.69;102304.00;5220614;28;20032;-65
2022/07/11 11:49:16;;;;;;;10.15;5.95;;;;;;;20.57;70.99;102305.78;5213872;28;20161;-65
2022/07/11 11:51:48;;;;;;;5.95;5.30;;;;;;;20.65;71.04;102295.69;5200415;28;20023;-65
2022/07/11 11:54:24;;;;;;;9.15;6.43;;;;;;;20.80;70.53;102301.75;5203336;28;20022;-66
2022/07/11 11:56:57;;;;;;;8.20;5.85;;;;;;;20.58;70.27;102304.59;5222004;28;20132;-66
2022/07/11 11:59:30;;;;;;;5.80;5.20;;;;;;;20.62;70.54;102298.00;5239326;28;20040;-65
2022/07/11 12:02:01;;;;;;;5.13;4.60;;;;;;;20.54;70.05;102295.13;5219959;28;20101;-65
2022/07/11 12:04:36;;;;;;;5.93;5.32;;;;;;;20.58;70.47;102290.50;5207796;28;20109;-66
2022/07/11 12:07:07;;;;;;;4.43;4.00;;;;;;;20.69;70.69;102283.47;5199665;28;20105;-65
2022/07/11 12:09:47;;;;;;;9.45;4.75;;;;;;;20.79;70.24;102286.00;5198687;28;20530;-65
2022/07/11 12:12:47;;;;;;;4.90;3.70;;;;;;;20.74;69.90;102293.75;5219471;28;20375;-65
2022/07/11 12:15:25;;;;;;;8.48;3.35;;;;;;;20.74;70.10;102297.41;5210765;28;20050;-65
2022/07/11 12:18:00;;;;;;;3.70;3.38;;;;;;;20.65;70.01;102299.34;5219488;28;20096;-65
2022/07/11 12:20:36;;;;;;;4.40;2.85;;;;;;;20.76;69.34;102292.28;5219666;28;20025;-64
2022/07/11 12:23:09;;;;;;;2.92;2.33;;;;;;;20.95;69.14;102296.84;5220040;28;20355;-64
2022/07/11 12:25:42;;;;;;;3.45;3.05;;;;;;;21.14;67.53;102288.09;5222090;28;20485;-65
2022/07/11 12:28:14;;;;;;;5.43;2.78;;;;;;;21.14;67.62;102291.78;5211031;28;20062;-64
2022/07/11 12:30:45;;;;;;;2.30;2.10;;;;;;;21.19;67.34;102294.44;5219681;28;20105;-65
2022/07/11 12:33:17;;;;;;;3.47;2.35;;;;;;;21.13;67.73;102284.47;5219537;28;20449;-66
2022/07/11 12:35:57;;;;;;;3.05;2.78;;;;;;;21.28;67.14;102286.00;5212369;28;20454;-66
2022/07/11 12:38:51;;;;;;;3.17;2.10;;;;;;;21.25;66.87;102276.19;5219681;28;20025;-66
2022/07/11 12:41:22;;;;;;;5.07;2.40;;;;;;;21.37;65.65;102272.75;5215725;28;20385;-67
2022/07/11 12:46:47;;;;;;;2.65;1.85;;;;;;;21.38;66.09;102274.44;5224230;28;20037;-67
2022/07/11 12:49:18;;;;;;;2.77;2.20;;;;;;;21.33;66.43;102268.09;5218066;28;20528;-67
2022/07/11 12:51:53;;;;;;;2.88;2.08;;;;;;;21.32;66.05;102275.72;5202764;28;20285;-67
2022/07/11 12:54:30;;;;;;;1.65;1.55;;;;;;;21.33;66.53;102276.56;5203559;28;20429;-67
2022/07/11 12:57:02;;;;;;;2.13;1.92;;;;;;;21.33;65.96;102270.91;5203264;28;20058;-67
2022/07/11 12:59:38;;;;;;;2.22;1.70;;;;;;;21.42;65.99;102277.41;5208922;28;20358;-67
2022/07/11 13:02:11;;;;;;;4.40;3.33;;;;;;;21.52;65.04;102279.91;5224180;28;20034;-67
2022/07/11 13:04:42;;;;;;;2.38;1.70;;;;;;;21.57;65.46;102285.41;5224581;28;20022;-67
2022/07/11 13:10:13;;;;;;;3.83;1.92;;;;;;;21.51;65.24;102280.28;5203133;28;20269;-67
2022/07/11 13:12:46;;;;;;;8.52;1.92;;;;;;;21.67;65.12;102281.44;5202825;28;20023;-67
2022/07/11 13:15:18;;;;;;;2.08;1.88;;;;;;;21.60;65.10;102276.31;5220578;28;20056;-68
2022/07/11 13:17:52;;;;;;;1.58;1.40;;;;;;;21.67;65.33;102278.63;5223487;28;20064;-67
2022/07/11 13:20:29;;;;;;;3.08;1.60;;;;;;;21.62;64.74;102273.97;5232595;28;20115;-68
2022/07/11 13:23:00;;;;;;;1.52;1.40;;;;;;;21.62;64.20;102278.78;5232068;28;20022;-68
2022/07/11 13:25:32;;;;;;;1.52;1.42;;;;;;;21.63;64.68;102272.81;5205208;28;20018;-69
2022/07/11 13:28:03;;;;;;;1.45;1.35;;;;;;;21.67;64.47;102287.09;5216355;28;20441;-66
2022/07/11 13:30:34;;;;;;;2.03;1.52;;;;;;;21.74;64.73;102273.31;5220412;28;20029;-66
2022/07/11 13:33:06;;;;;;;3.67;1.70;;;;;;;21.83;64.68;102273.31;5209292;28;20069;-66
2022/07/11 13:35:38;;;;;;;2.95;1.70;;;;;;;;;;5212175;28;20037;-68
2022/07/11 13:38:09;;;;;;;4.25;2.70;;;;;;;22.12;64.54;102269.81;5223739;28;20029;-66
2022/07/11 13:40:41;;;;;;;1.77;1.55;;;;;;;21.99;64.19;102274.47;5239184;28;20033;-67
2022/07/11 13:43:13;;;;;;;4.43;2.58;;;;;;;21.95;64.05;102278.28;5243781;28;20025;-67
2022/07/11 13:45:47;;;;;;;2.08;1.50;;;;;;;22.00;64.10;102267.66;5243603;28;20025;-67
2022/07/11 13:48:18;;;;;;;1.10;1.00;;;;;;;22.16;62.49;102265.13;5233090;28;20029;-67
2022/07/11 13:50:49;;;;;;;2.33;1.10;;;;;;;22.44;61.46;102268.44;5221116;28;20037;-67
2022/07/11 13:53:22;;;;;;;3.42;1.30;;;;;;;22.49;60.69;102270.25;5205882;28;20021;-67
2022/07/11 13:55:54;;;;;;;1.98;1.65;;;;;;;22.38;61.81;102269.78;5224034;28;20038;-67
2022/07/11 13:58:26;;;;;;;1.40;1.30;;;;;;;22.24;62.49;102266.31;5225153;28;20054;-66
2022/07/11 14:01:00;;;;;;;1.48;1.38;;;;;;;22.31;61.40;102273.13;5214033;28;20025;-67
2022/07/11 14:03:32;;;;;;;1.98;1.50;;;;;;;22.45;60.44;102272.94;5230492;28;20030;-66
2022/07/11 14:06:03;;;;;;;3.10;1.77;;;;;;;22.24;60.96;102266.31;5222357;28;20038;-66
2022/07/11 14:08:34;;;;;;;2.15;1.95;;;;;;;22.65;60.89;102260.06;5215606;28;20044;-66
2022/07/11 14:11:06;;;;;;;1.27;1.17;;;;;;;22.95;59.88;102252.44;5211496;28;20022;-67
2022/07/11 14:13:37;;;;;;;0.90;0.90;;;;;;;23.11;58.95;102257.53;5222709;28;20485;-67
2022/07/11 14:16:08;;;;;;;11.25;10.25;;;;;;;23.22;58.97;102259.66;5221697;28;20406;-66
2022/07/11 14:18:43;;;;;;;5.00;3.17;;;;;;;23.18;58.65;102260.66;5220285;28;20033;-67
2022/07/11 14:21:14;;;;;;;2.33;1.30;;;;;;;22.97;58.71;102254.97;5222470;28;20026;-66
2022/07/11 14:23:45;;;;;;;2.20;1.70;;;;;;;23.21;58.57;102248.66;5221083;28;20273;-66
2022/07/11 14:26:17;;;;;;;3.40;3.10;;;;;;;23.36;57.82;102248.06;5222005;28;20025;-66
2022/07/11 14:28:49;;;;;;;2.63;2.05;;;;;;;23.81;57.00;102247.41;5218915;28;20055;-67
2022/07/11 14:31:29;;;;;;;5.13;2.45;;;;;;;23.80;57.22;102242.94;5221883;28;20145;-66
2022/07/11 14:34:00;;;;;;;2.42;1.20;;;;;;;23.51;56.93;102240.97;5222231;28;20041;-65
2022/07/11 14:36:32;;;;;;;3.42;2.53;;;;;;;23.70;57.24;102243.31;5221224;28;20053;-67
2022/07/11 14:39:03;;;;;;;1.50;1.30;;;;;;;23.49;57.30;102243.31;5220115;28;20037;-67
2022/07/11 14:41:35;;;;;;;1.20;1.10;;;;;;;23.39;57.38;102238.91;5236087;28;20025;-66
2022/07/11 14:44:07;;;;;;;2.58;1.40;;;;;;;23.77;57.67;102242.78;5224096;28;20053;-67
2022/07/11 14:46:38;;;;;;;1.25;1.17;;;;;;;23.68;56.04;102245.69;5231685;28;20072;-69
2022/07/11 14:49:10;;;;;;;1.25;1.15;;;;;;;23.77;56.05;102245.63;5226091;28;20025;-68
2022/07/11 14:51:44;;;;;;;1.25;1.10;;;;;;;23.81;56.69;102249.44;5228568;28;20052;-69
2022/07/11 14:54:16;;;;;;;2.47;1.73;;;;;;;23.96;56.14;102242.31;5221366;28;20029;-68
2022/07/11 14:56:48;;;;;;;1.67;1.23;;;;;;;24.03;55.60;102246.22;5225923;28;20507;-69
2022/07/11 14:59:19;;;;;;;27.42;24.98;;;;;;;24.14;55.66;102249.44;5230205;28;20033;-69
2022/07/11 15:01:51;;;;;;;1.77;1.63;;;;;;;24.01;55.12;102247.75;5218947;28;20037;-70
2022/07/11 15:04:23;;;;;;;1.48;1.38;;;;;;;24.05;55.43;102243.03;5216737;28;20085;-70
2022/07/11 15:12:34;;;;;;;2.90;1.45;;;;;;;24.37;54.68;102249.06;5220232;28;20070;-68
2022/07/11 15:15:06;;;;;;;2.00;1.40;;;;;;;24.39;54.19;102250.34;5235015;28;20406;-69
2022/07/11 15:17:37;;;;;;;3.20;2.92;;;;;;;24.09;55.28;102249.66;5222253;28;20026;-68
2022/07/11 15:20:09;;;;;;;2.53;1.50;;;;;;;24.05;54.87;102248.69;5220840;28;20402;-67
2022/07/11 15:22:40;;;;;;;1.63;1.23;;;;;;;24.15;55.31;102244.59;5211746;28;20109;-67
2022/07/11 15:25:11;;;;;;;1.27;1.13;;;;;;;24.22;54.61;102247.69;5201053;28;20036;-69
2022/07/11 15:27:43;;;;;;;1.58;1.30;;;;;;;23.82;54.71;102251.91;5200812;28;20034;-69
2022/07/11 15:30:16;;;;;;;2.17;1.52;;;;;;;23.93;54.62;102240.13;5234861;28;20018;-69
2022/07/11 15:32:48;;;;;;;1.63;1.20;;;;;;;23.70;54.70;102249.00;5233910;28;20025;-69
2022/07/11 15:35:20;;;;;;;1.45;1.27;;;;;;;23.66;55.88;102248.03;5222744;28;20045;-68
2022/07/11 15:37:51;;;;;;;37.15;34.20;;;;;;;23.76;55.17;102246.81;5230319;28;20029;-67
2022/07/11 15:40:22;;;;;;;57.35;51.75;;;;;;;23.66;55.46;102246.00;5233830;28;20025;-66
2022/07/11 15:42:54;;;;;;;5.13;4.63;;;;;;;23.71;55.60;102238.50;5220311;28;20030;-66
2022/07/11 15:45:25;;;;;;;6.68;4.97;;;;;;;23.87;55.62;102236.69;5220608;28;20037;-67
2022/07/11 15:47:56;;;;;;;1.77;1.20;;;;;;;23.71;54.97;102230.00;5216133;28;20033;-68
2022/07/11 15:50:28;;;;;;;3.13;1.13;;;;;;;23.99;54.11;102233.09;5209210;28;20030;-67
2022/07/11 15:53:00;;;;;;;2.50;1.30;;;;;;;23.90;53.91;102230.34;5220433;28;20021;-67
2022/07/11 15:55:34;;;;;;;2.80;1.48;;;;;;;24.02;53.67;102232.41;5220147;28;20118;-68
2022/07/11 15:58:06;;;;;;;1.35;1.13;;;;;;;24.01;54.14;102228.75;5220284;28;20552;-66
2022/07/11 16:00:38;;;;;;;1.67;1.58;;;;;;;23.87;52.34;102219.69;5219683;28;20034;-67
2022/07/11 16:03:10;;;;;;;1.35;1.25;;;;;;;24.03;52.47;102223.56;5221879;28;20043;-69
2022/07/11 16:05:41;;;;;;;1.40;1.30;;;;;;;24.11;52.68;102215.28;5216771;28;20026;-68
2022/07/11 16:08:13;;;;;;;1.88;1.48;;;;;;;24.36;51.98;102224.69;5222536;28;20390;-70
2022/07/11 16:10:45;;;;;;;2.10;1.42;;;;;;;24.13;52.68;102222.25;5216022;28;20018;-68
2022/07/11 16:13:16;;;;;;;1.40;1.30;;;;;;;23.83;52.51;102219.56;5220848;28;20030;-69
2022/07/11 16:15:48;;;;;;;1.63;1.33;;;;;;;23.98;52.80;102209.59;5225395;28;20466;-70
2022/07/11 16:18:19;;;;;;;4.50;1.35;;;;;;;24.37;52.21;102213.00;5228244;28;20038;-68
2022/07/11 16:20:51;;;;;;;2.33;1.30;;;;;;;24.22;52.93;102214.50;5224193;28;20026;-69
2022/07/11 16:23:22;;;;;;;2.10;1.50;;;;;;;24.37;52.29;102218.69;5223672;28;20018;-68
2022/07/11 16:25:53;;;;;;;1.92;1.55;;;;;;;24.42;52.10;102217.63;5227312;28;20076;-68
2022/07/11 16:28:24;;;;;;;2.55;1.25;;;;;;;24.27;52.31;102217.13;5226736;28;20358;-68
2022/07/11 16:30:56;;;;;;;2.97;1.38;;;;;;;24.21;52.49;102206.34;5238642;28;20022;-68
2022/07/11 16:33:27;;;;;;;2.45;1.55;;;;;;;24.41;51.83;102210.28;5222361;28;20109;-68
2022/07/11 16:35:59;;;;;;;2.55;1.45;;;;;;;24.30;52.17;102210.75;5213533;28;20048;-69
2022/07/11 16:38:30;;;;;;;1.92;1.58;;;;;;;24.50;51.47;102213.91;5224112;28;20030;-68
2022/07/11 16:43:51;;;;;;;12.50;2.20;;;;;;;25.07;51.68;102204.44;5223226;28;20034;-69
2022/07/11 16:46:23;;;;;;;2.15;1.92;;;;;;;25.07;50.85;102207.28;5230712;28;20029;-69
2022/07/11 16:48:54;;;;;;;12.52;11.48;;;;;;;25.02;51.53;102207.50;5230474;28;20103;-69
2022/07/11 16:51:26;;;;;;;2.83;2.40;;;;;;;24.88;51.49;102198.56;5223354;28;20022;-69
2022/07/11 16:53:57;;;;;;;1.33;1.13;;;;;;;24.85;51.45;102193.56;5211765;28;20441;-69
2022/07/11 16:56:28;;;;;;;1.30;1.00;;;;;;;25.07;50.57;102190.25;5223442;28;20021;-69
2022/07/11 16:59:00;;;;;;;1.98;1.30;;;;;;;25.13;50.22;102196.50;5211495;28;20130;-69
2022/07/11 17:01:31;;;;;;;1.55;1.42;;;;;;;25.20;50.43;102195.94;5223964;28;20464;-69
2022/07/11 17:04:03;;;;;;;1.98;1.27;;;;;;;25.13;50.67;102190.81;5230744;28;20030;-69
2022/07/11 17:06:34;;;;;;;2.05;1.42;;;;;;;25.11;50.25;102187.53;5221950;28;20117;-69
2022/07/11 17:09:07;;;;;;;1.23;1.13;;;;;;;25.19;49.37;102192.28;5211611;28;20027;-69
2022/07/11 17:11:38;;;;;;;2.33;1.27;;;;;;;25.13;49.80;102186.00;5202881;28;20053;-69
2022/07/11 17:14:09;;;;;;;1.95;1.35;;;;;;;24.96;49.46;102189.09;5203512;28;20108;-69
2022/07/11 17:16:41;;;;;;;1.40;1.30;;;;;;;24.98;49.47;102189.56;5219100;28;20033;-69
2022/07/11 17:19:12;;;;;;;1.40;1.08;;;;;;;24.79;49.36;102184.47;5223436;28;20026;-69
2022/07/11 17:21:44;;;;;;;1.45;1.35;;;;;;;24.71;49.12;102186.25;5224251;28;20018;-69
2022/07/11 17:24:15;;;;;;;1.30;1.20;;;;;;;24.53;49.29;102184.81;5215276;28;20025;-69
2022/07/11 17:26:47;;;;;;;3.17;1.13;;;;;;;24.87;48.99;102182.69;5202780;28;20022;-69
